Time,TemperatureF,DewpointF,PressureIn,WindDirection,WindDirectionDegrees,WindSpeedMPH,WindSpeedGustMPH,Humidity,HourlyPrecipIn,Conditions,Clouds,dailyrainin,SoftwareType,DateUTC
2013-09-28 00:22:00,57.0,56.0,29.89,North,0,0.0,0.0,98,0.07,,,1.36,,2013-09-28 07:22:00,
2013-09-28 00:52:00,57.0,56.0,29.87,North,0,0.0,0.0,97,0.04,,,1.44,,2013-09-28 07:52:00,
2013-09-28 01:21:00,57.0,57.0,29.85,North,0,0.0,0.0,99,0.08,,,1.44,,2013-09-28 08:21:00,
2013-09-28 01:53:00,57.0,56.0,29.84,North,0,0.0,0.0,98,0.26,,,1.58,,2013-09-28 08:53:00,
2013-09-28 02:22:00,57.0,56.0,29.83,North,0,0.0,0.0,98,0.22,,,1.58,,2013-09-28 09:22:00,
2013-09-28 02:54:00,57.0,56.0,29.81,North,0,0.0,0.0,96,0.05,,,1.73,,2013-09-28 09:54:00,
2013-09-28 03:22:00,57.0,56.0,29.79,North,0,7.0,7.0,97,0.06,,,1.73,,2013-09-28 10:22:00,
2013-09-28 03:52:00,57.0,56.0,29.77,North,0,11.0,11.0,95,0.18,,,1.86,,2013-09-28 10:52:00,
2013-09-28 04:22:00,57.0,56.0,29.76,NW,317,0.0,32.0,98,0.19,,,1.86,,2013-09-28 11:22:00,
2013-09-28 04:52:00,57.0,56.0,29.74,WNW,284,17.0,33.0,95,0.19,,,2.00,,2013-09-28 11:52:00,
2013-09-28 05:22:00,56.0,54.0,29.71,NW,323,17.0,37.0,94,0.32,,,2.00,,2013-09-28 12:22:00,
2013-09-28 05:52:00,56.0,55.0,29.70,NW,316,20.0,34.0,97,0.26,,,2.33,,2013-09-28 12:52:00,
2013-09-28 06:21:00,57.0,54.0,29.70,NNW,343,0.0,36.0,91,0.17,,,2.33,,2013-09-28 13:21:00,
2013-09-28 06:52:00,57.0,56.0,29.69,WNW,301,5.0,35.0,95,0.11,,,2.48,,2013-09-28 13:52:00,
2013-09-28 07:21:00,57.0,56.0,29.68,NW,317,18.0,40.0,95,0.04,,,2.48,,2013-09-28 14:21:00,
2013-09-28 07:52:00,57.0,56.0,29.67,WNW,301,21.0,34.0,96,0.06,,,2.52,,2013-09-28 14:52:00,
2013-09-28 08:22:00,57.0,56.0,29.66,NW,319,22.0,36.0,96,0.07,,,2.52,,2013-09-28 15:22:00,
2013-09-28 08:54:00,57.0,56.0,29.65,NW,306,0.0,39.0,97,0.04,,,2.58,,2013-09-28 15:54:00,
2013-09-28 09:24:00,56.0,55.0,29.64,NW,305,19.0,42.0,95,0.04,,,2.58,,2013-09-28 16:24:00,
2013-09-28 09:54:00,56.0,55.0,29.63,NW,319,23.0,46.0,98,0.05,,,2.58,,2013-09-28 16:54:00,
2013-09-28 10:23:00,56.0,54.0,29.62,North,355,21.0,41.0,93,0.13,,,2.58,,2013-09-28 17:23:00,
2013-09-28 10:52:00,56.0,55.0,29.61,NW,317,27.0,43.0,96,0.15,,,2.55,,2013-09-28 17:52:00,
2013-09-28 11:22:00,56.0,55.0,29.61,NW,324,21.0,44.0,96,0.07,,,2.55,,2013-09-28 18:22:00,
2013-09-28 11:52:00,56.0,55.0,29.59,NNW,327,22.0,40.0,96,0.05,,,2.50,,2013-09-28 18:52:00,
2013-09-28 12:21:00,56.0,55.0,29.58,WNW,296,22.0,41.0,97,0.03,,,2.50,,2013-09-28 19:21:00,
2013-09-28 12:52:00,56.0,56.0,29.55,WNW,285,23.0,44.0,99,0.02,,,2.44,,2013-09-28 19:52:00,
2013-09-28 13:22:00,56.0,55.0,29.54,NW,317,24.0,52.0,98,0.03,,,2.44,,2013-09-28 20:22:00,
2013-09-28 13:52:00,56.0,55.0,29.52,NW,322,28.0,49.0,97,0.08,,,2.44,,2013-09-28 20:52:00,
2013-09-28 14:22:00,56.0,55.0,29.50,NNW,330,28.0,53.0,98,0.07,,,2.44,,2013-09-28 21:22:00,
2013-09-28 14:55:00,56.0,55.0,29.48,North,11,30.0,52.0,95,0.04,,,2.45,,2013-09-28 21:55:00,
2013-09-28 15:23:00,56.0,55.0,29.49,NW,319,22.0,56.0,96,0.05,,,2.45,,2013-09-28 22:23:00,
2013-09-28 15:54:00,56.0,55.0,29.45,NNW,336,27.0,49.0,96,0.13,,,2.44,,2013-09-28 22:54:00,
2013-09-28 16:22:00,54.0,51.0,29.54,North,11,12.0,52.0,89,0.20,,,2.44,,2013-09-28 23:22:00,
2013-09-28 16:52:00,50.0,47.0,29.56,North,0,0.0,0.0,90,0.15,,,2.61,,2013-09-28 23:52:00,
2013-09-28 17:22:00,50.0,49.0,29.56,North,0,0.0,0.0,95,0.10,,,2.61,,2013-09-29 00:22:00,
2013-09-28 17:52:00,50.0,43.0,29.54,North,0,0.0,0.0,77,0.08,,,2.68,,2013-09-29 00:52:00,
2013-09-28 18:21:00,50.0,46.0,29.55,North,0,0.0,0.0,87,0.12,,,2.68,,2013-09-29 01:21:00,
2013-09-28 18:52:00,50.0,48.0,29.55,North,0,0.0,0.0,93,0.14,,,2.69,,2013-09-29 01:52:00,
2013-09-28 19:21:00,50.0,49.0,29.54,North,0,0.0,0.0,95,0.13,,,2.69,,2013-09-29 02:21:00,
2013-09-28 19:53:00,50.0,44.0,29.55,North,0,0.0,0.0,81,0.10,,,2.78,,2013-09-29 02:53:00,
2013-09-28 20:23:00,50.0,43.0,29.55,North,0,0.0,0.0,78,0.04,,,2.78,,2013-09-29 03:23:00,
2013-09-28 20:55:00,50.0,49.0,29.56,North,0,0.0,0.0,95,0.03,,,2.60,,2013-09-29 03:55:00,
2013-09-28 21:02:00,-999.0,-99.9,29.55,North,0,0.0,2.0,-999,-99.99,,,-99.99,,2013-09-29 04:02:00,
2013-09-28 21:23:00,51.0,49.0,29.56,North,0,0.0,0.0,93,0.05,,,2.60,,2013-09-29 04:23:00,
2013-09-28 21:54:00,50.0,49.0,29.57,North,0,0.0,0.0,95,0.07,,,2.44,,2013-09-29 04:54:00,
2013-09-28 22:22:00,49.0,43.0,29.57,NNW,330,4.0,24.0,81,0.10,,,2.44,,2013-09-29 05:22:00,
2013-09-28 22:52:00,49.0,44.0,29.56,North,0,0.0,0.0,83,0.06,,,2.42,,2013-09-29 05:52:00,
2013-09-28 23:22:00,52.0,49.0,29.57,North,0,0.0,10.0,88,0.00,,,2.42,,2013-09-29 06:22:00,
2013-09-28 23:52:00,51.0,48.0,29.57,North,0,0.0,0.0,89,0.00,,,2.38,,2013-09-29 06:52:00,